Laukaa, Finland
Kieli:  Suomi
11°C CurCond
Päivitetty18/10/2018 15:35 
 

Lähistön Lentoasemien Säätiloja:

 

EFJY - Jyvaskyla (mil/C,) Finland
Etäisyys Sääasemalta: PKo 21km
Päivitetty: 18/10/2018 16:50
Enimmäkseen pilvistä
Enimmäkseen pilvistä
 Tuulen suunta LLu
Tuuli: LLu 20 km/h
Lämpötila: 10°C
Tuulen purevuus: 7°C
Kastepiste: 8°C
Ilmankosteus: 88%
Ilmanpaine: 1009 hPa
Pilvisyys: Enimmäkseen pilvistä
Näkyvyys: 10 km
Pilvisyystiedot: Enimmäkseen pilvistä 1433 m
Enimmäkseen pilvistä 2743 m
2018/10/18 13:50 EFJY 181350Z AUTO 30011KT 9999 BKN047 BKN090 10/08 Q1009
EFHA - Halli (fin-Afb), Finland
Etäisyys Sääasemalta: Lo 56km
Päivitetty: 18/10/2018 16:50
Pilvistä
Pilvistä
 Tuulen suunta LLu
Tuuli: LLu 20 km/h
Lämpötila: 9°C
Tuulen purevuus: 6°C
Kastepiste: 8°C
Ilmankosteus: 94%
Ilmanpaine: 1010 hPa
Pilvisyys: Pilvistä
Näkyvyys: 10 km
Pilvisyystiedot: Joitain Pilviä 244 m
Pilvistä 1402 m
2018/10/18 13:50 EFHA 181350Z AUTO 30011KT 9999 FEW008 OVC046 09/08 Q1010 RESHRA
EFMI - Mikkeli, Finland
Etäisyys Sääasemalta: IKa 105km
Päivitetty: 18/10/2018 16:50
Heikkoa sadetta, Enimmäkseen pilvistä
Heikkoa sadetta, Enimmäkseen pilvistä
 Tuulen suunta Lo
Tuuli: Lo 9 km/h
Lämpötila: 12°C
Kastepiste: 11°C
Ilmankosteus: 94%
Ilmanpaine: 1009 hPa
Yhteenveto: Light Rain
Pilvisyys: Enimmäkseen pilvistä
Näkyvyys: 10 km
Pilvisyystiedot: Enimmäkseen pilvistä 244 m
2018/10/18 13:50 EFMI 181350Z AUTO 22005KT 170V280 9999 -RA BKN008 12/11 Q1009
 
EFTP - Tampere/Pirkkala, Finland
Etäisyys Sääasemalta: Lo 135km
Päivitetty: 18/10/2018 17:20
Enimmäkseen pilvistä
Enimmäkseen pilvistä
 Tuulen suunta Lu
Tuuli: Lu 15 km/h
Lämpötila: 9°C
Tuulen purevuus: 7°C
Kastepiste: 6°C
Ilmankosteus: 82%
Ilmanpaine: 1012 hPa
Pilvisyys: Enimmäkseen pilvistä
Näkyvyys: 10 km
Pilvisyystiedot: Joitain Pilviä 884 m
Puolipilvistä 1128 m
Enimmäkseen pilvistä 1372 m
Enimmäkseen pilvistä 1829 m
2018/10/18 14:20 EFTP 181420Z AUTO 31008KT 9999 FEW029 SCT037 BKN045 BKN060 09/06 Q1012
EFKU - Kuopio (mil/Civ), Finland
Etäisyys Sääasemalta: Ko 146km
Päivitetty: 18/10/2018 16:50
Sade, Pilvistä
Sade, Pilvistä
 Tuulen suunta LLu
Tuuli: LLu 13 km/h
Lämpötila: 10°C
Tuulen purevuus: 8°C
Kastepiste: 9°C
Ilmankosteus: 94%
Ilmanpaine: 1007 hPa
Yhteenveto: Sade
Pilvisyys: Pilvistä
Näkyvyys: 10 km
Pilvisyystiedot: Joitain Pilviä 610 m
Pilvistä 1646 m
2018/10/18 13:50 EFKU 181350Z AUTO 29007KT 9999 RA FEW020 OVC054CB 10/09 Q1007
EFSI - Seinajoki-Ilmajo, Finland
Etäisyys Sääasemalta: LLu 149km
Päivitetty: 18/10/2018 16:50
Selkeätä
Selkeätä
 Tuulen suunta L
Tuuli: L 11 km/h
Lämpötila: 9°C
Tuulen purevuus: 7°C
Kastepiste: 4°C
Ilmankosteus: 71%
Ilmanpaine: 1011 hPa
Yhteenveto: Selkeätä
Näkyvyys: Enemmän Kuin 10 km
2018/10/18 13:50 EFSI 181350Z AUTO 27006KT 210V320 CAVOK 09/04 Q1011